Aérodrome :
LOGIN :

S'inscrire | Disclaimer

   EN    FR    IT 

 










Légende :    VFR   VFR Marginal   IFR   IFR Intensif   IFR Très Intensif
Visi : 
Plafond : 
>= 8 km
>= 3000ft
5 à 8 km
1000 à 3000 ft
1500m à 5 km
500 à 1000 ft
800 à 1500m
200 à 500 ft
< 800m
< 200 ft
Symboles :   Orages  Brouillard  Fortes neiges  Fortes précipitations  Vent > 20 kt
SIGMETs :   Divers  Orages  Givrage  Turbulence  Onde Orograph.  Cendres Volcan.






- Altitude de l'aérodrome : 776 ft
- Code IATA : RMS


ETAR - Ramstein Air Base

DERNIER METAR :
  • 280741Z 00000KT 9999 BKN011 BKN044 02/02 A2940 RMK AO2A BKN011 V SCT SLP969 $

METARs EXPIRÉS :
  • 280721Z 00000KT 9999 SCT012 BKN041 02/02 A2939 RMK AO2A SLP966 $
  • 280656Z 24005KT 9999 BKN012 02/02 A2938 RMK AO2A BKN V SCT SLP962 T00180018 $
  • 280556Z 00000KT 9999 SCT044 02/02 A2938 RMK AO2A RAB13SNB13SNE27RAE55 SLP962 P0000 60000 T00220022 10027 20022 50001 $
  • 280555Z 00000KT 9999 FEW044 02/02 A2938 RMK AO2A RAB13SNB13SNE27RAE55 SLP962 $
  • 280527Z 22003KT 9999 -RA OVC012 02/02 A2938 RMK AO2A RAB13SNB13SNE27 SLP962 $
  • 280513Z 25003KT 9000 -RASN BKN013 03/03 A2937 RMK AO2A RAB13SNB13 SLP958 $
  • 280456Z 00000KT 9999 OVC015 03/03 A2938 RMK AO2A CIG 013 RWY08 SLP961 T00260026 $

TAF TAF ETAR
Valide du 28 à 02h jusqu'au 29 à 08h UTC


280200Z 2802/2908 22006KT 9999 FEW015 BKN025 620254 QNH2935INS
TEMPO 2803/2807 8000 -SHRASN BKN015 610254
BECMG 2810/2811 25006KT 9999 SCT015 BKN020 620203 QNH2941INS
BECMG 2817/2818 34006KT 9999 BKN010 620105 QNH2950INS
TEMPO 2818/2822 6000 -SHRASN BKN009 610105
BECMG 2903/2904 28006KT 9999 FEW015 SCT025 QNH2964INS TX04/2812Z TN00/2822Z



MET'MAP, la Météo Aéronautique d'un coup d'oeil ! - Copyright ORBIFLY Décembre 2007 - Disclaimer

ORBIFLY MET'MAP TEAM :

Programmation & Développement : Alexandra Zaïnal
Sur une idée originale de : Baudouin d'Aumeries
Assistance à la programmation : Marc-Olivier Méhu
Soutien technique & logistique : Manuel Goepfert

Contact : metmap@orbifly.com




SOURCES & CREDITS :

   NOAA